createdAt,value
2019-03-08T00:00:55.293Z,99345.30
2019-03-08T00:03:27.403Z,99342.98
2019-03-08T00:05:59.305Z,99339.83
2019-03-08T00:08:31.119Z,99341.41
2019-03-08T00:11:02.928Z,99349.48
2019-03-08T00:13:34.800Z,99353.67
2019-03-08T00:16:06.785Z,99356.37
2019-03-08T00:18:38.742Z,99357.80
2019-03-08T00:21:10.603Z,99354.36
2019-03-08T00:23:42.525Z,99364.51
2019-03-08T00:26:14.303Z,99360.97
2019-03-08T00:28:46.062Z,99350.91
2019-03-08T00:31:17.899Z,99342.00
2019-03-08T00:33:50.056Z,99340.73
2019-03-08T00:36:21.977Z,99355.23
2019-03-08T00:38:53.743Z,99360.98
2019-03-08T00:41:25.736Z,99367.22
2019-03-08T00:43:57.510Z,99373.06
2019-03-08T00:46:30.077Z,99381.93
2019-03-08T00:49:02.074Z,99381.14
2019-03-08T00:51:34.090Z,99389.56
2019-03-08T00:54:05.904Z,99383.33
2019-03-08T00:56:39.674Z,99389.93
2019-03-08T00:59:11.339Z,99396.01
2019-03-08T01:01:43.493Z,99386.23
2019-03-08T01:04:15.422Z,99385.41
2019-03-08T01:06:47.270Z,99397.81
2019-03-08T01:09:20.453Z,99391.50
2019-03-08T01:11:52.585Z,99397.94
2019-03-08T01:14:24.409Z,99396.05
2019-03-08T01:16:56.285Z,99398.56
2019-03-08T01:19:28.301Z,99396.55
2019-03-08T01:22:00.541Z,99399.30
2019-03-08T01:24:32.300Z,99398.92
2019-03-08T01:27:04.357Z,99402.51
2019-03-08T01:29:36.131Z,99409.20
2019-03-08T01:32:08.173Z,99407.88
2019-03-08T01:34:40.222Z,99415.28
2019-03-08T01:37:12.210Z,99416.48
2019-03-08T01:39:45.163Z,99423.16
2019-03-08T01:42:17.047Z,99418.02
2019-03-08T01:44:49.296Z,99421.73
2019-03-08T01:47:21.299Z,99419.10
2019-03-08T01:49:53.036Z,99419.59
2019-03-08T01:55:14.427Z,99428.87
2019-03-08T01:57:46.214Z,99418.49
2019-03-08T02:00:19.782Z,99427.08
2019-03-08T02:02:51.653Z,99418.27
2019-03-08T02:05:24.742Z,99421.83
2019-03-08T02:07:56.472Z,99422.80
2019-03-08T02:10:29.956Z,99432.80
2019-03-08T02:13:01.842Z,99432.58
2019-03-08T02:15:33.883Z,99435.09
2019-03-08T02:18:05.833Z,99426.50
2019-03-08T02:20:38.106Z,99428.03
2019-03-08T02:23:09.843Z,99429.11
2019-03-08T02:25:41.693Z,99428.30
2019-03-08T02:28:13.843Z,99422.08
2019-03-08T02:30:45.964Z,99423.77
2019-03-08T02:33:17.702Z,99427.08
2019-03-08T02:35:49.514Z,99430.41
2019-03-08T02:38:21.244Z,99431.62
2019-03-08T02:40:53.142Z,99438.89
2019-03-08T02:43:24.896Z,99432.41
2019-03-08T02:45:56.691Z,99429.57
2019-03-08T02:48:28.472Z,99427.51
2019-03-08T02:51:02.597Z,99434.55
2019-03-08T02:53:34.413Z,99429.75
2019-03-08T02:56:06.425Z,99428.05
2019-03-08T02:58:38.314Z,99425.44
2019-03-08T03:01:10.258Z,99433.62
2019-03-08T03:03:42.114Z,99430.72
2019-03-08T03:06:14.281Z,99431.64
2019-03-08T03:08:46.104Z,99432.47
2019-03-08T03:11:18.212Z,99430.45
2019-03-08T03:13:50.409Z,99436.92
2019-03-08T03:16:22.451Z,99431.44
2019-03-08T03:18:54.232Z,99438.20
2019-03-08T03:21:28.742Z,99441.46
2019-03-08T03:24:00.486Z,99449.88
2019-03-08T03:26:32.443Z,99445.05
2019-03-08T03:29:04.244Z,99449.88
2019-03-08T03:31:36.379Z,99453.70
2019-03-08T03:34:08.080Z,99450.64
2019-03-08T03:36:40.733Z,99454.70
2019-03-08T03:39:12.487Z,99461.70
2019-03-08T03:41:44.551Z,99461.88
2019-03-08T03:44:16.314Z,99461.63
2019-03-08T03:46:48.362Z,99463.08
2019-03-08T03:49:20.156Z,99461.50
2019-03-08T03:51:52.166Z,99456.30
2019-03-08T03:54:23.952Z,99463.77
2019-03-08T03:56:56.018Z,99465.14
2019-03-08T03:59:27.798Z,99467.92
2019-03-08T04:01:59.730Z,99471.31
2019-03-08T04:04:31.478Z,99465.43
2019-03-08T04:07:03.454Z,99467.80
2019-03-08T04:09:35.245Z,99468.58
2019-03-08T04:12:07.814Z,99474.73
2019-03-08T04:14:39.618Z,99479.72
2019-03-08T04:17:11.624Z,99475.52
2019-03-08T04:19:43.757Z,99471.59
2019-03-08T04:22:15.858Z,99471.15
2019-03-08T04:24:47.739Z,99468.36
2019-03-08T04:27:19.775Z,99465.84
2019-03-08T04:29:51.621Z,99469.29
2019-03-08T04:32:23.614Z,99466.77
2019-03-08T04:34:55.383Z,99475.39
2019-03-08T04:37:27.731Z,99477.91
2019-03-08T04:40:00.577Z,99465.52
2019-03-08T04:42:33.011Z,99472.42
2019-03-08T04:45:04.974Z,99477.70
2019-03-08T04:47:37.436Z,99481.63
2019-03-08T04:50:10.815Z,99470.55
2019-03-08T04:52:42.892Z,99476.88
2019-03-08T04:55:16.958Z,99476.10
2019-03-08T04:57:49.704Z,99474.45
2019-03-08T05:00:23.030Z,99482.48
2019-03-08T05:02:55.068Z,99471.94
2019-03-08T05:05:26.839Z,99482.11
2019-03-08T05:07:59.014Z,99474.27
2019-03-08T05:10:30.745Z,99476.73
2019-03-08T05:13:02.600Z,99473.78
2019-03-08T05:15:34.407Z,99480.62
2019-03-08T05:18:06.423Z,99480.04
2019-03-08T05:20:38.158Z,99485.02
2019-03-08T05:23:10.457Z,99481.39
2019-03-08T05:25:42.241Z,99481.48
2019-03-08T05:28:14.074Z,99479.25
2019-03-08T05:30:45.872Z,99475.29
2019-03-08T05:33:18.430Z,99481.63
2019-03-08T05:35:50.194Z,99469.97
2019-03-08T05:38:22.357Z,99462.60
2019-03-08T05:40:54.078Z,99470.59
2019-03-08T05:43:25.954Z,99469.29
2019-03-08T05:45:57.936Z,99467.48
2019-03-08T05:48:29.715Z,99458.33
2019-03-08T05:51:01.515Z,99464.44
2019-03-08T05:53:33.552Z,99468.37
2019-03-08T05:56:05.358Z,99466.64
2019-03-08T05:58:37.145Z,99473.35
2019-03-08T06:01:08.924Z,99457.80
2019-03-08T06:03:40.956Z,99470.99
2019-03-08T06:06:12.788Z,99479.56
2019-03-08T06:08:44.846Z,99477.05
2019-03-08T06:11:16.627Z,99472.86
2019-03-08T06:13:48.522Z,99473.92
2019-03-08T06:16:20.305Z,99476.64
2019-03-08T06:18:52.141Z,99481.80
2019-03-08T06:21:25.357Z,99482.61
2019-03-08T06:23:57.691Z,99487.77
2019-03-08T06:26:29.905Z,99484.38
2019-03-08T06:29:02.030Z,99482.05
2019-03-08T06:31:33.802Z,99486.86
2019-03-08T06:34:07.364Z,99503.42
2019-03-08T06:36:39.127Z,99492.30
2019-03-08T06:39:11.021Z,99488.26
2019-03-08T06:41:42.753Z,99478.77
2019-03-08T06:44:14.832Z,99481.19
2019-03-08T06:46:46.617Z,99471.55
2019-03-08T06:49:18.689Z,99471.92
2019-03-08T06:51:50.500Z,99465.19
2019-03-08T06:54:22.598Z,99470.67
2019-03-08T06:56:54.370Z,99462.58
2019-03-08T06:59:46.691Z,99456.31
2019-03-08T07:02:19.337Z,99471.83
2019-03-08T07:04:51.162Z,99464.78
2019-03-08T07:07:23.216Z,99463.80
2019-03-08T07:09:55.473Z,99466.95
2019-03-08T07:12:27.309Z,99466.56
2019-03-08T07:14:59.312Z,99480.30
2019-03-08T07:17:31.093Z,99467.06
2019-03-08T07:20:13.164Z,99469.32
2019-03-08T07:22:51.933Z,99463.81
2019-03-08T07:25:50.941Z,99472.53
2019-03-08T07:28:33.064Z,99473.86
2019-03-08T07:31:24.429Z,99463.58
2019-03-08T07:34:18.263Z,99456.50
2019-03-08T07:37:09.039Z,99464.99
2019-03-08T07:40:08.718Z,99456.82
2019-03-08T07:43:02.043Z,99466.83
2019-03-08T07:45:55.764Z,99457.28
2019-03-08T07:48:53.408Z,99452.48
2019-03-08T07:51:56.340Z,99472.39
2019-03-08T07:54:56.480Z,99464.20
2019-03-08T07:57:46.048Z,99468.07
2019-03-08T08:00:48.829Z,99466.95
2019-03-08T08:03:32.580Z,99464.26
2019-03-08T08:06:27.248Z,99459.33
2019-03-08T08:09:16.727Z,99470.70
2019-03-08T08:12:10.678Z,99470.10
2019-03-08T08:15:14.015Z,99475.89
2019-03-08T08:17:56.479Z,99471.83
2019-03-08T08:20:45.986Z,99477.25
2019-03-08T08:23:37.102Z,99466.27
2019-03-08T08:26:33.547Z,99463.56
2019-03-08T08:29:18.714Z,99468.84
2019-03-08T08:32:20.457Z,99460.77
2019-03-08T08:35:17.214Z,99471.19
2019-03-08T08:38:05.479Z,99469.84
2019-03-08T08:41:08.263Z,99447.02
2019-03-08T08:44:14.250Z,99473.83
2019-03-08T08:47:08.448Z,99454.16
2019-03-08T08:50:00.979Z,99443.23
2019-03-08T08:52:54.903Z,99441.48
2019-03-08T08:55:48.567Z,99447.06
2019-03-08T08:58:36.991Z,99434.02
2019-03-08T09:01:37.229Z,99447.34
2019-03-08T09:04:40.284Z,99423.14
2019-03-08T09:07:21.169Z,99436.94
2019-03-08T09:10:10.799Z,99445.18
2019-03-08T09:13:07.547Z,99435.69
2019-03-08T09:15:49.576Z,99427.38
2019-03-08T09:18:49.565Z,99432.36
2019-03-08T09:21:46.582Z,99436.31
2019-03-08T09:24:40.027Z,99439.46
2019-03-08T09:27:18.470Z,99427.75
2019-03-08T09:30:15.214Z,99438.97
2019-03-08T09:33:11.957Z,99437.81
2019-03-08T09:35:53.304Z,99440.21
2019-03-08T09:38:42.935Z,99434.70
2019-03-08T09:41:32.220Z,99424.97
2019-03-08T09:44:38.459Z,99419.19
2019-03-08T09:47:38.357Z,99434.19
2019-03-08T09:50:28.172Z,99437.47
2019-03-08T09:53:10.520Z,99432.73
2019-03-08T09:56:10.048Z,99426.84
2019-03-08T09:59:06.885Z,99430.21
2019-03-08T10:01:47.729Z,99418.44
2019-03-08T10:04:26.489Z,99416.20
2019-03-08T10:07:10.580Z,99427.56
2019-03-08T10:10:13.376Z,99407.37
2019-03-08T10:12:55.259Z,99411.39
2019-03-08T10:15:52.099Z,99445.25
2019-03-08T10:18:43.009Z,99441.27
2019-03-08T10:21:49.291Z,99437.75
2019-03-08T10:24:55.333Z,99423.07
2019-03-08T10:27:46.076Z,99406.28
2019-03-08T10:30:42.595Z,99428.62
2019-03-08T10:33:46.534Z,99433.98
2019-03-08T10:36:34.318Z,99420.44
2019-03-08T10:39:13.558Z,99435.46
2019-03-08T10:42:13.509Z,99408.97
2019-03-08T10:45:02.871Z,99461.86
2019-03-08T10:47:45.989Z,99429.92
2019-03-08T10:50:32.831Z,99432.51
2019-03-08T10:53:10.310Z,99444.72
2019-03-08T10:55:52.054Z,99430.86
2019-03-08T10:58:46.275Z,99448.98
2019-03-08T11:01:46.003Z,99449.80
2019-03-08T11:04:26.531Z,99444.61
2019-03-08T11:07:12.517Z,99450.08
2019-03-08T11:09:55.503Z,99448.08
2019-03-08T11:12:39.156Z,99431.97
2019-03-08T11:15:30.537Z,99429.75
2019-03-08T11:18:12.186Z,99437.44
2019-03-08T11:21:19.509Z,99442.86
2019-03-08T11:24:08.065Z,99438.20
2019-03-08T11:27:04.730Z,99431.75
2019-03-08T11:29:49.663Z,99430.92
2019-03-08T11:32:39.979Z,99459.99
2019-03-08T11:35:29.903Z,99432.72
2019-03-08T11:38:22.721Z,99435.42
2019-03-08T11:41:19.670Z,99425.61
2019-03-08T11:44:23.483Z,99423.28
2019-03-08T11:47:14.155Z,99428.58
2019-03-08T11:50:11.108Z,99443.41
2019-03-08T11:53:16.835Z,99425.36
2019-03-08T11:55:59.182Z,99430.78
2019-03-08T11:58:53.079Z,99420.15
2019-03-08T12:01:47.018Z,99427.05
2019-03-08T12:04:27.707Z,99409.53
2019-03-08T12:07:10.818Z,99431.81
2019-03-08T12:09:57.987Z,99412.47
2019-03-08T12:12:46.578Z,99419.61
2019-03-08T12:15:33.243Z,99406.55
2019-03-08T12:18:24.311Z,99427.88
2019-03-08T12:21:30.363Z,99424.61
2019-03-08T12:24:18.931Z,99423.48
2019-03-08T12:27:09.699Z,99445.16
2019-03-08T12:30:00.631Z,99420.45
2019-03-08T12:32:50.033Z,99444.61
2019-03-08T12:35:53.326Z,99432.73
2019-03-08T12:38:40.059Z,99437.66
2019-03-08T12:41:35.368Z,99434.88
2019-03-08T12:44:21.416Z,99439.52
2019-03-08T12:47:07.482Z,99425.38
2019-03-08T12:49:52.121Z,99476.83
2019-03-08T12:52:46.063Z,99428.06
2019-03-08T12:55:38.115Z,99453.41
2019-03-08T12:58:27.670Z,99452.20
2019-03-08T13:01:27.340Z,99453.96
2019-03-08T13:04:17.059Z,99450.67
2019-03-08T13:07:09.326Z,99459.86
2019-03-08T13:09:50.506Z,99465.73
2019-03-08T13:12:24.574Z,99486.39
2019-03-08T13:14:56.562Z,99480.00
2019-03-08T13:17:28.414Z,99472.32
2019-03-08T13:20:00.599Z,99476.17
2019-03-08T13:22:32.515Z,99489.05
2019-03-08T13:25:04.931Z,99500.61
2019-03-08T13:27:36.904Z,99489.19
2019-03-08T13:30:15.980Z,99498.73
2019-03-08T13:32:47.987Z,99496.33
2019-03-08T13:35:19.888Z,99500.41
2019-03-08T13:37:51.755Z,99497.22
2019-03-08T13:40:23.651Z,99496.43
2019-03-08T13:42:55.536Z,99503.22
2019-03-08T13:45:27.945Z,99498.08
2019-03-08T13:47:59.713Z,99499.39
2019-03-08T13:50:32.144Z,99503.55
2019-03-08T13:53:04.119Z,99499.23
2019-03-08T13:55:36.288Z,99522.13
2019-03-08T13:58:08.149Z,99498.86
2019-03-08T14:00:40.216Z,99525.39
2019-03-08T14:03:12.407Z,99512.83
2019-03-08T14:05:44.574Z,99516.41
2019-03-08T14:08:17.047Z,99501.20
2019-03-08T14:10:49.254Z,99506.31
2019-03-08T14:13:21.480Z,99502.19
2019-03-08T14:15:53.728Z,99518.84
2019-03-08T14:18:25.589Z,99521.59
2019-03-08T14:20:57.485Z,99534.69
2019-03-08T14:23:29.297Z,99525.70
2019-03-08T14:26:01.156Z,99522.63
2019-03-08T14:28:33.007Z,99519.61
2019-03-08T14:31:17.695Z,99552.27
2019-03-08T14:33:49.627Z,99534.95
2019-03-08T14:36:22.698Z,99521.41
2019-03-08T14:38:54.522Z,99515.53
2019-03-08T14:41:38.416Z,99519.95
2019-03-08T14:44:29.873Z,99527.14
2019-03-08T14:47:15.210Z,99537.98
2019-03-08T14:49:47.025Z,99531.22
2019-03-08T14:52:21.557Z,99541.30
2019-03-08T14:54:52.758Z,99547.28
2019-03-08T14:57:27.372Z,99553.72
2019-03-08T14:59:58.764Z,99561.13
2019-03-08T15:02:30.632Z,99583.83
2019-03-08T15:05:10.917Z,99568.67
2019-03-08T15:07:37.241Z,99565.03
2019-03-08T15:10:11.383Z,99581.95
2019-03-08T15:12:49.102Z,99566.60
2019-03-08T15:15:18.307Z,99574.55
2019-03-08T15:17:53.778Z,99576.98
2019-03-08T15:20:24.656Z,99569.40
2019-03-08T15:22:56.801Z,99594.02
2019-03-08T15:25:30.653Z,99637.92
2019-03-08T15:28:02.979Z,99587.66
2019-03-08T15:30:34.831Z,99597.79
2019-03-08T15:33:07.057Z,99590.45
2019-03-08T15:35:39.047Z,99603.64
2019-03-08T15:38:11.007Z,99607.09
2019-03-08T15:40:42.847Z,99596.76
2019-03-08T15:43:15.413Z,99602.95
2019-03-08T15:45:47.535Z,99605.34
2019-03-08T15:48:19.609Z,99630.25
2019-03-08T15:50:51.624Z,99618.45
2019-03-08T15:53:23.549Z,99608.28
2019-03-08T15:55:56.582Z,99619.77
2019-03-08T15:58:28.671Z,99625.43
2019-03-08T16:01:00.566Z,99623.87
2019-03-08T16:03:33.966Z,99633.97
2019-03-08T16:06:07.449Z,99629.77
2019-03-08T16:08:40.865Z,99623.23
2019-03-08T16:11:13.199Z,99629.53
2019-03-08T16:13:45.479Z,99628.48
2019-03-08T16:16:17.259Z,99628.25
2019-03-08T16:18:49.540Z,99636.41
2019-03-08T16:21:21.291Z,99641.05
2019-03-08T16:23:53.225Z,99640.81
2019-03-08T16:26:26.363Z,99639.38
2019-03-08T16:28:58.999Z,99649.28
2019-03-08T16:31:39.857Z,99661.62
2019-03-08T16:34:11.675Z,99662.11
2019-03-08T16:36:51.083Z,99671.41
2019-03-08T16:39:40.340Z,99678.62
2019-03-08T16:42:33.654Z,99684.97
2019-03-08T16:45:24.414Z,99689.25
2019-03-08T16:48:12.777Z,99686.98
2019-03-08T16:51:05.202Z,99701.23
2019-03-08T16:53:54.444Z,99711.16
2019-03-08T16:56:42.822Z,99706.27
2019-03-08T16:59:32.371Z,99707.34
2019-03-08T17:02:23.537Z,99718.58
2019-03-08T17:05:14.379Z,99721.80
2019-03-08T17:08:01.989Z,99732.91
2019-03-08T17:10:47.491Z,99732.92
2019-03-08T17:13:44.760Z,99760.53
2019-03-08T17:16:35.590Z,99744.39
2019-03-08T17:19:29.961Z,99787.76
2019-03-08T17:22:29.943Z,99780.98
2019-03-08T17:25:20.899Z,99813.65
2019-03-08T17:28:02.821Z,99827.12
2019-03-08T17:30:50.959Z,99833.53
2019-03-08T17:33:44.120Z,99842.23
2019-03-08T17:36:33.735Z,99847.78
2019-03-08T17:39:21.376Z,99845.55
2019-03-08T17:42:24.995Z,99848.48
2019-03-08T17:45:15.186Z,99852.76
2019-03-08T17:48:14.750Z,99851.55
2019-03-08T17:51:04.814Z,99856.03
2019-03-08T17:53:57.488Z,99861.17
2019-03-08T17:56:55.529Z,99872.08
2019-03-08T17:59:34.053Z,99878.84
2019-03-08T18:02:30.833Z,99870.70
2019-03-08T18:05:24.217Z,99875.70
2019-03-08T18:08:04.093Z,99889.22
2019-03-08T18:10:49.519Z,99885.39
2019-03-08T18:13:41.466Z,99880.73
2019-03-08T18:16:28.967Z,99889.91
2019-03-08T18:19:22.927Z,99882.97
2019-03-08T18:22:23.036Z,99884.66
2019-03-08T18:25:08.611Z,99888.99
2019-03-08T18:27:50.394Z,99896.70
2019-03-08T18:30:53.324Z,99903.81
2019-03-08T18:33:41.734Z,99905.34
2019-03-08T18:36:32.239Z,99906.86
2019-03-08T18:39:30.115Z,99902.92
2019-03-08T18:42:20.924Z,99889.09
2019-03-08T18:45:11.635Z,99905.73
2019-03-08T18:48:01.832Z,99913.91
2019-03-08T18:50:51.614Z,99922.35
2019-03-08T18:53:41.922Z,99927.23
2019-03-08T18:56:45.374Z,99922.19
2019-03-08T18:59:42.843Z,99939.20
2019-03-08T19:02:32.403Z,99934.09
2019-03-08T19:05:38.390Z,99932.87
2019-03-08T19:08:29.511Z,99942.89
2019-03-08T19:11:12.811Z,99941.84
2019-03-08T19:14:02.355Z,99950.55
2019-03-08T19:16:53.172Z,99953.74
2019-03-08T19:19:50.110Z,99952.69
2019-03-08T19:22:59.456Z,99962.81
2019-03-08T19:26:01.602Z,99975.99
2019-03-08T19:29:04.382Z,99981.39
2019-03-08T19:32:07.623Z,99991.23
2019-03-08T19:34:57.350Z,99994.43
2019-03-08T19:37:51.127Z,99996.74
2019-03-08T19:40:43.493Z,100000.11
2019-03-08T19:43:34.838Z,100005.72
2019-03-08T19:46:19.586Z,100007.61
2019-03-08T19:49:13.691Z,100010.41
2019-03-08T19:52:03.937Z,100009.94
2019-03-08T19:54:55.599Z,100027.95
2019-03-08T19:57:58.329Z,100029.44
2019-03-08T20:00:56.299Z,100031.70
2019-03-08T20:03:36.956Z,100037.77
2019-03-08T20:06:41.295Z,100039.45
2019-03-08T20:09:22.817Z,100048.40
2019-03-08T20:12:20.586Z,100050.44
2019-03-08T20:15:24.263Z,100058.85
2019-03-08T20:18:10.890Z,100068.56
2019-03-08T20:21:06.419Z,100073.71
2019-03-08T20:23:51.398Z,100080.84
2019-03-08T20:26:29.441Z,100083.14
2019-03-08T20:29:26.759Z,100089.89
2019-03-08T20:32:18.781Z,100095.01
2019-03-08T20:35:22.348Z,100101.37
2019-03-08T20:38:22.097Z,100105.69
2019-03-08T20:41:19.670Z,100109.03
2019-03-08T20:43:59.653Z,100109.78
2019-03-08T20:46:36.479Z,100109.13
2019-03-08T20:49:08.600Z,100120.15
2019-03-08T20:51:40.998Z,100125.63
2019-03-08T20:54:13.531Z,100131.70
2019-03-08T20:56:45.723Z,100136.23
2019-03-08T20:59:18.272Z,100133.80
2019-03-08T21:01:50.309Z,100138.22
2019-03-08T21:04:22.496Z,100137.99
2019-03-08T21:06:54.599Z,100142.67
2019-03-08T21:09:26.867Z,100145.09
2019-03-08T21:11:58.868Z,100151.87
2019-03-08T21:14:32.199Z,100150.48
2019-03-08T21:17:04.342Z,100152.03
2019-03-08T21:19:36.947Z,100153.41
2019-03-08T21:22:09.176Z,100152.81
2019-03-08T21:24:43.031Z,100167.91
2019-03-08T21:27:15.113Z,100174.80
2019-03-08T21:29:48.198Z,100178.29
2019-03-08T21:32:20.479Z,100176.98
2019-03-08T21:34:53.007Z,100174.12
2019-03-08T21:37:25.225Z,100182.87
2019-03-08T21:39:57.331Z,100182.28
2019-03-08T21:42:29.350Z,100193.09
2019-03-08T21:45:02.029Z,100196.77
2019-03-08T21:47:35.831Z,100193.67
2019-03-08T21:50:10.790Z,100196.52
2019-03-08T21:52:42.935Z,100193.08
2019-03-08T21:55:15.463Z,100193.98
2019-03-08T21:57:47.591Z,100186.70
2019-03-08T22:00:22.550Z,100196.03
2019-03-08T22:02:54.909Z,100190.05
2019-03-08T22:05:30.184Z,100200.09
2019-03-08T22:08:02.780Z,100201.48
2019-03-08T22:10:44.596Z,100207.80
2019-03-08T22:13:18.669Z,100213.55
2019-03-08T22:15:51.233Z,100221.22
2019-03-08T22:18:23.277Z,100214.54
2019-03-08T22:20:55.662Z,100217.48
2019-03-08T22:23:27.571Z,100224.92
2019-03-08T22:26:00.291Z,100223.60
2019-03-08T22:28:32.635Z,100223.22
2019-03-08T22:31:05.216Z,100228.78
2019-03-08T22:33:37.898Z,100232.16
2019-03-08T22:36:10.123Z,100228.32
2019-03-08T22:38:42.075Z,100236.00
2019-03-08T22:41:15.064Z,100236.00
2019-03-08T22:43:47.928Z,100236.44
2019-03-08T22:46:20.481Z,100242.97
2019-03-08T22:48:52.451Z,100248.45
2019-03-08T22:51:24.468Z,100245.59
2019-03-08T22:53:56.483Z,100252.26
2019-03-08T22:56:28.695Z,100243.20
2019-03-08T22:59:01.002Z,100241.60
2019-03-08T23:01:44.199Z,100249.72
2019-03-08T23:04:16.972Z,100252.33
2019-03-08T23:06:49.419Z,100251.82
2019-03-08T23:09:22.135Z,100258.02
2019-03-08T23:11:55.043Z,100262.47
2019-03-08T23:14:27.077Z,100257.33
2019-03-08T23:16:59.394Z,100257.09
2019-03-08T23:19:31.260Z,100257.46
2019-03-08T23:22:03.276Z,100250.65
2019-03-08T23:24:35.241Z,100248.03
2019-03-08T23:27:38.274Z,100251.02
2019-03-08T23:30:23.333Z,100254.88
2019-03-08T23:32:56.439Z,100257.23
2019-03-08T23:35:28.297Z,100257.63
2019-03-08T23:38:00.523Z,100265.25
2019-03-08T23:40:32.494Z,100266.06
2019-03-08T23:43:04.707Z,100268.05
2019-03-08T23:45:36.599Z,100269.21
2019-03-08T23:48:09.022Z,100269.61
2019-03-08T23:50:40.964Z,100265.78
2019-03-08T23:53:12.915Z,100269.21
2019-03-08T23:55:44.752Z,100270.36
2019-03-08T23:58:16.898Z,100277.31
